Mechanicstown, Ohio
Current Conditions -  °F | °C
As of 3:53 PM on Thursday 20 Nov 2014 (Local Time) from KPHD Reporting Station
Overcast Overcast  
Wind Chill: 15°   Ceiling: 4100
Heat Index: 27°   Visibility: 10mi
Dew Point: 12°   Wind: 15mph
Humidity: 53%   Direction: 220°SW
Pressure: 30.05"   Gusts: 24mph
Location:  40.62°N, 80.95°W
Report Text: KPHD 202053Z AUTO 22013G21KT 200V260 10SM OVC041 M03/M11 A3005 RMK AO2 SLP188 T10281111 53003
Loading
Personal Weather Stations






























Interactive Weather Map New forecast layout! Learn more

10-Day Weather Forecast

Advertisements
Track Severe Weather on mobile